VREMENSKI PODATKI

VČERAJ
Time Temp. Dewp. Hum. Smer vet Hitrost ve Wind gust Bar. 1h Prec. 24h Prec.
23:59 14.6 14 96 90 0.3 1.9 1014.9 0.0000 0.0000
00:10 14.6 14 96 68 0.8 3.3 1014.8 0.0000 0.0000
00:19 14.5 13.9 96 75 0.8 1.9 1014.9 0.0000 0.0000
00:29 14.5 13.9 96 71 0.8 2.8 1014.8 0.0000 0.0000
00:40 14.5 13.9 96 90 0.8 2.8 1014.9 0.0000 0.0000
00:50 14.5 13.9 96 90 0.8 2.8 1014.8 0.0000 0.0000
01:00 14.4 13.8 96 75 1.1 2.8 1014.8 0.0000 0.0000
01:10 14.4 13.8 96 90 0.8 2.8 1014.7 0.0000 0.0000
01:20 14.4 13.8 96 90 0.8 2.5 1014.7 0.0000 0.0000
01:30 14.4 13.8 96 90 0.8 2.8 1014.6 0.0000 0.0000
01:40 14.4 13.8 96 90 0.8 2.5 1014.6 0.0000 0.0000
01:51 14.4 13.8 96 90 1.1 2.8 1014.5 0.0000 0.0000
02:01 14.4 13.8 96 90 0.8 1.9 1014.5 0.0000 0.0000
02:11 14.3 13.7 96 90 0.8 2.8 1014.5 0.0000 0.0000
02:20 14.3 13.7 96 75 0.8 1.9 1014.5 0.0000 0.0000
02:31 14.3 13.7 96 90 0.8 1.9 1014.5 0.0000 0.0000
02:41 14.4 13.8 96 90 1.1 2.8 1014.5 0.0000 0.0000
02:51 14.3 13.7 96 81 1.1 2.8 1014.5 0.0000 0.0000
03:01 14.3 13.7 96 90 0.8 2.5 1014.5 0.0000 0.0000
03:12 14.3 13.7 96 90 0.8 2.8 1014.5 0.0000 0.0000
03:21 14.3 13.7 96 90 1.1 3.3 1014.4 0.0000 0.0000
03:31 14.2 13.6 96 90 1.7 4.4 1014.5 0.0000 0.0000
03:42 14.2 13.6 96 74 1.1 2.8 1014.5 0.0000 0.0000
03:52 14.1 13.5 96 76 1.1 2.8 1014.4 0.0000 0.0000
04:02 14 13.4 96 83 1.9 4.4 1014.4 0.0000 0.0000
04:12 13.9 13.3 96 78 1.9 4.2 1014.3 0.0000 0.0000
04:22 13.8 13.2 96 90 1.9 5 1014.2 0.0000 0.0000
04:32 13.8 13.2 96 97 1.9 4.4 1014.1 0.0000 0.0000
04:42 13.7 13.1 96 80 1.1 2.8 1014.2 0.0000 0.0000
04:53 13.7 13.1 96 90 1.7 3.6 1014.2 0.0000 0.0000
05:03 13.7 13.1 96 84 1.9 4.2 1014.2 0.0000 0.0000
05:12 13.6 13 96 81 1.7 4.2 1014.3 0.0000 0.0000
05:22 13.6 13 96 78 0.8 2.5 1014.3 0.0000 0.0000
05:33 13.5 12.9 96 85 1.7 3.3 1014.2 0.0000 0.0000
05:43 13.5 12.9 96 81 1.1 3.3 1014.2 0.0000 0.0000
05:53 13.4 12.8 96 73 0.8 2.8 1014.2 0.0000 0.0000
06:03 13.4 12.8 96 74 0.8 2.8 1014.1 0.0000 0.0000
06:13 13.3 12.7 96 90 0.8 2.5 1014.2 0.0000 0.0000
06:23 13.3 12.7 96 90 0.3 2.5 1014.2 0.0000 0.0000
06:33 13.3 12.7 96 90 0.3 1.7 1014.2 0.0000 0.0000
06:44 13.3 12.7 96 90 0.3 1.7 1014.2 0.0000 0.0000
06:54 13.3 12.7 96 90 0.3 1.7 1014.4 0.0000 0.0000
07:03 13.3 12.7 96 53 0.8 2.5 1014.4 0.0000 0.0000
07:14 13.3 12.7 96 90 0.3 1.7 1014.5 0.0000 0.0000
07:24 13.3 12.7 96 90 0.3 1.9 1014.4 0.0000 0.0000
07:34 13.3 12.7 96 90 0.3 1.7 1014.4 0.0000 0.0000
07:44 13.3 12.8 97 68 0.8 1.9 1014.3 0.1010 0.1000
07:55 13.3 12.8 97 61 0.8 1.9 1014.4 0.1010 0.1000
08:04 13.2 12.6 96 67 0.8 3.3 1014.4 0.1010 0.1000
08:14 13.2 12.6 96 75 0.8 1.7 1014.3 0.1010 0.1000
08:24 13.2 12.6 96 90 0.8 1.9 1014.3 0.1010 0.1000
08:35 13.2 12.7 97 68 0.8 2.8 1014.4 0.0000 0.1000
08:45 13.2 12.6 96 67 0.8 2.5 1014.3 0.0000 0.1000
08:55 13.2 12.6 96 90 1.1 3.3 1014.3 0.0000 0.1000
09:05 13.1 12.5 96 90 1.1 3.3 1014.4 0.0000 0.1000
09:15 13.1 12.5 96 104 0.8 2.8 1014.6 0.0000 0.1000
09:25 13.1 12.5 96 78 1.7 3.3 1014.6 0.0000 0.1000
09:35 13 12.4 96 82 1.1 2.8 1014.6 0.0000 0.1000
09:46 13 12.5 97 81 1.9 5.8 1014.7 0.0000 0.1000
09:56 13 12.5 97 73 1.1 2.8 1014.7 0.0000 0.1000
10:05 13 12.4 96 80 1.7 4.4 1014.9 0.0000 0.1000
10:16 13 12.5 97 73 1.7 3.6 1015.1 0.0000 0.1000
10:26 13 12.5 97 90 0.8 1.9 1015.2 0.0000 0.1000
10:36 13 12.5 97 95 1.9 5 1015.2 0.0000 0.1000
10:46 13 12.7 98 83 2.5 5.8 1015.2 0.0000 0.1000
10:57 12.9 12.6 98 76 1.7 3.6 1015.2 0.0000 0.1000
11:06 13 12.7 98 79 1.7 4.4 1015.3 0.0000 0.1000
11:16 13 12.7 98 90 1.1 3.3 1015.3 0.0000 0.1000
11:26 13 12.7 98 97 1.7 4.2 1015.2 0.0000 0.1000
11:37 13.1 12.8 98 90 1.7 4.2 1015.1 0.0000 0.1000
11:47 13.2 12.9 98 104 1.7 4.2 1015.1 0.0000 0.1000
11:57 13.3 13 98 95 1.7 3.3 1015.1 0.0000 0.1000
12:07 13.3 13 98 90 1.7 5.8 1015 0.0000 0.1000
12:17 13.3 13 98 90 1.7 3.6 1015 0.0000 0.1000
12:27 13.4 13.1 98 95 2.5 5.3 1015 0.0000 0.1000
12:37 13.4 13.1 98 90 1.1 2.8 1015 0.0000 0.1000
12:48 13.5 13.2 98 90 1.7 4.2 1015 0.0000 0.1000
12:58 13.5 13.2 98 80 1.9 5 1014.9 0.0000 0.1000
13:07 13.5 13.2 98 90 1.1 4.2 1014.9 0.0000 0.1000
13:18 13.6 13.3 98 90 1.7 3.6 1014.9 0.0000 0.1000
13:28 13.7 13.1 96 90 1.9 4.2 1014.8 0.0000 0.1000
13:38 13.7 12.8 94 90 2.5 4.4 1014.7 0.0000 0.1000
13:48 13.8 12.5 92 90 1.9 5.3 1014.8 0.0000 0.1000
13:58 13.8 12.5 92 90 1.9 4.2 1014.9 0.0000 0.1000
14:08 13.8 12.4 91 59 1.1 3.6 1014.9 0.0000 0.1000
14:18 13.8 12 89 90 1.9 4.2 1014.9 0.0000 0.1000
14:28 13.8 12 89 90 1.1 2.8 1014.9 0.0000 0.1000
14:39 13.7 12.1 90 90 1.1 4.4 1014.8 0.0000 0.1000
14:49 13.7 12.3 91 79 1.1 2.5 1014.7 0.0000 0.1000
14:58 13.7 12.3 91 103 1.1 3.3 1014.5 0.0000 0.1000
15:09 13.7 12.4 92 98 1.9 4.2 1014.5 0.0000 0.1000
15:19 13.7 11.9 89 85 1.7 3.3 1014.4 0.0000 0.1000
15:27 13.7 12.1 90 90 1.1 5.8 1014.4 0.0000 0.1000
15:38 13.7 11.9 89 90 1.7 3.3 1014.4 0.0000 0.1000
15:48 13.7 11.9 89 81 1.1 2.5 1014.4 0.0000 0.1000
15:58 13.7 12.3 91 90 1.1 3.3 1014.3 0.0000 0.1000
16:08 13.8 12.4 91 90 1.1 3.6 1014.3 0.0000 0.1000
16:18 13.7 12.3 91 90 0.8 2.8 1014.2 0.0000 0.1000
16:25 13.8 12.4 91 99 1.1 6.7 1014.3 0.0000 0.1000
16:35 13.8 12 89 97 2.5 5.8 1014.2 0.0000 0.1000
16:45 13.9 12.5 91 109 0.8 3.6 1014.2 0.0000 0.1000
16:55 13.9 12.5 91 90 1.9 4.4 1014.1 0.0000 0.1000
17:05 14 12.6 91 90 1.9 5.3 1014.1 0.0000 0.1000
17:15 14.1 12.1 88 104 2.8 6.1 1014.1 0.0000 0.1000
17:25 14.1 12.3 89 109 1.9 3.3 1014.1 0.0000 0.1000
17:36 14.1 12.3 89 90 1.9 4.2 1014.1 0.0000 0.1000
17:46 14.1 12.7 91 90 1.1 4.2 1014.2 0.0000 0.1000
17:55 14.1 12.5 90 90 1.7 3.3 1014.4 0.0000 0.1000
18:06 14.2 12.8 91 90 0.8 2.5 1014.4 0.0000 0.1000
18:16 14.2 12.6 90 106 1.9 4.2 1014.4 0.0000 0.1000
18:26 14.1 12.3 89 100 1.1 2.5 1014.2 0.0000 0.1000
18:36 14.1 13 93 107 1.7 2.5 1014.2 0.0000 0.1000
18:46 14.1 13.1 94 111 1.1 3.3 1014.2 0.0000 0.1000
18:56 14.1 13.3 95 119 0.8 1.9 1014.1 0.0000 0.1000
19:06 14 13.4 96 135 0.3 1.7 1014.2 0.0000 0.1000
19:16 14 13.5 97 90 0.3 1.7 1014.3 0.0000 0.1000
19:27 14 13.5 97 90 0.3 1.1 1014.3 0.0000 0.1000
19:37 13.9 13.4 97 90 0.3 1.1 1014.5 0.0000 0.1000
19:46 13.9 13.6 98 117 0.8 1.7 1014.6 0.0000 0.1000
19:57 13.9 13.6 98 115 0.8 1.7 1014.7 0.0000 0.1000
20:07 13.9 13.6 98 107 0.8 1.7 1014.7 0.0000 0.1000
20:17 13.9 13.6 98 117 0.8 1.7 1014.7 0.0000 0.1000
20:27 13.8 13.5 98 90 0.3 1.1 1014.8 0.0000 0.1000
20:37 13.8 13.5 98 90 0.3 1.7 1014.9 0.0000 0.1000
20:47 13.8 13.5 98 90 0.3 1.1 1015 0.0000 0.1000
20:57 13.8 13.5 98 127 0.3 1.7 1015 0.0000 0.1000
21:08 13.8 13.5 98 130 0.3 1.1 1015 0.0000 0.1000
21:18 13.8 13.5 98 90 0.3 1.1 1015 0.0000 0.1000
21:28 13.8 13.5 98 135 0.3 1.1 1015.1 0.0000 0.1000
21:37 13.8 13.5 98 90 0.3 1.7 1015.1 0.0000 0.1000
21:48 13.8 13.5 98 102 0.8 2.5 1015.1 0.0000 0.1000
21:58 13.8 13.5 98 90 0.3 1.1 1015.1 0.0000 0.1000
22:08 13.8 13.5 98 135 0.3 0.8 1015.1 0.0000 0.1000
22:18 13.8 13.5 98 90 0.3 1.1 1015.1 0.0000 0.1000
22:28 13.8 13.5 98 135 0.3 0.8 1015.2 0.0000 0.1000
22:38 13.8 13.5 98 135 0.3 1.1 1015.2 0.0000 0.1000
22:48 13.8 13.6 99 130 0.3 1.1 1015.3 0.0000 0.1000
22:59 13.8 13.5 98 141 0.3 0.8 1015.2 0.0000 0.1000
23:09 13.8 13.5 98 90 0.3 1.7 1015.3 0.0000 0.1000
23:19 13.8 13.5 98 90 0.3 1.1 1015.3 0.0000 0.1000
23:29 13.8 13.6 99 90 0.3 1.1 1015.2 0.0000 0.1000
23:39 13.8 13.6 99 90 0.3 1.1 1015.2 0.0000 0.1000
23:49 13.8 13.6 99 90 0.3 1.7 1015.2 0.0000 0.1000

DNEVNA STATISTIKA

2021-09-19
TEMPERATURA
POVPREČNO
13.7
VISOKO
14.6
00:10
NIZKO
12.9
10:57
PRITISK
POVPREČNO
1014.6
VISOKO
1015.3
11:06
NIZKO
1014.1
04:32
ROSIŠČE
POVPREČNO
13.0
VISOKO
14.0
00:10
NIZKO
11.9
15:19
VLAŽNOST
POVPREČNO
96
VISOKO
99
22:48
NIZKO
88
17:15
HITROST VETRA
POVPREČNO
1.1
VISOKO
2.8
17:15
WIND GUST
POVPREČNO
3.0
VISOKO
6.7
16:25
SMER VETRA
PREVLADUJOČA
V
87.3%
S
0.0
SV
3.5
V
87.3
JV
9.2
J
0.0
JZ
0.0
Z
0.0
SZ
0.0
PADAVINE
PADAVINE URNO
0.1
PADAVINE DNEVNO
0.1
TEMPERATURA (°C)
NIZKO
12.9
VISOKO
14.6
POVPREČNO
13.7
PRITISK (hpa)
NIZKO
1014.1
VISOKO
1015.3
POVPREČNO
1014.6
DEVICE